• Join FlightAware (Why Join?)
  • Login
  • US Flag 
11:16PM EDT


 

Airport Tracker/Info


-or-


 

Live Flight TrackerFlight Track Log ✈ DAL6152 ✈ 2013年12月29日 ✈ KDTW - KTVC

Flight Track Log - Related Links

Times and Time Zones

All times are in EST time to prevent confusion due to time zone crossing. See the DAL6152 flight status page for this flight to view local times or setup timezone preferences in your user account.

Time Position Orientation Groundspeed Altitude Reporting Facility
EST Latitude Longitude Course Direction KTS MPH feet Rate Location/Type
12:11PM 42.2036 -83.3725 North 154 177 1,400  Level Cleveland Center
12:13PM 42.1489 -83.4492 226° Southwest 227 261 4,100 1,920 Climbing Cleveland Center
12:13PM 42.1467 -83.4572 250° West 228 262 4,400 3,000 Climbing Cleveland Center
12:14PM 42.4518 -83.5549 North  Level Estimated
12:14PM 42.1669 -83.5208 293° West 224 258 7,200  Level Cleveland Center
12:14PM 42.1747 -83.5261 333° Northwest 225 259 7,500 2,580 Climbing Cleveland Center
12:15PM 42.5315 -83.6224 North  Level Estimated
12:15PM 42.2300 -83.5678 331° Northwest 254 292 9,700  Level Cleveland Center
12:15PM 42.2292 -83.5644 109° East 244 281 9,600 1,080 Descending Cleveland Center
12:16PM 42.6111 -83.6901 North  Level Estimated
12:16PM 42.3100 -83.5756 354° North 299 344 10,900  Level Cleveland Center
12:17PM 42.3958 -83.5464 14° North 341 392 11,600 840 Climbing Cleveland Center
12:18PM 42.5097 -83.5081 14° North 374 430 12,700 1,020 Climbing Cleveland Center
12:19PM 42.6158 -83.4703 15° North 390 449 13,700 960 Climbing Cleveland Center
12:20PM 42.7242 -83.4317 15° North 400 460 14,700 600 Climbing Cleveland Center
12:21PM 42.8344 -83.3939 14° North 407 468 15,000 120 Climbing Cleveland Center
12:22PM 42.9381 -83.4447 340° North 398 458 15,000  Level Cleveland Center
12:23PM 43.0231 -83.5342 322° Northwest 388 447 15,000  Level Cleveland Center
12:24PM 43.1044 -83.6272 320° Northwest 383 441 15,000  Level Cleveland Center
12:25PM 43.1847 -83.7183 320° Northwest 378 435 15,000  Level Cleveland Center
12:26PM 43.2783 -83.8275 320° Northwest 371 427 15,000  Level Cleveland Center
12:27PM 43.3581 -83.9186 320° Northwest 372 428 15,000  Level Cleveland Center
12:28PM 43.4283 -84.0017 319° Northwest 378 435 15,000  Level Cleveland Center
12:29PM 43.5239 -84.1147 319° Northwest 378 435 15,000  Level Cleveland Center
12:30PM 43.6044 -84.2089 320° Northwest 381 438 15,000  Level Cleveland Center
12:31PM 43.6844 -84.3014 320° Northwest 377 434 15,000  Level Cleveland Center
12:32PM 43.7628 -84.3939 320° Northwest 373 429 15,000 -480 Level Cleveland Center
12:33PM 43.8517 -84.4731 327° Northwest 387 445 14,100 -1,080 Descending Cleveland Center
12:34PM 43.9431 -84.5489 329° Northwest 386 444 12,800 -1,140 Descending Cleveland Center
12:35PM 44.0269 -84.6194 329° Northwest 372 428 11,800 -900 Descending Cleveland Center
12:36PM 44.0975 -84.6772 330° Northwest 344 396 11,000 -480 Descending Cleveland Center
12:37PM 44.1775 -84.7406 330° Northwest 310 357 10,900 -60 Descending Cleveland Center
12:38PM 44.2436 -84.7939 330° Northwest 290 334 10,900 -360 Level Cleveland Center
12:39PM 44.3108 -84.8494 329° Northwest 284 327 10,200 -1,320 Descending Cleveland Center
12:40PM 44.3797 -84.8928 336° Northwest 288 331 8,200 -1,140 Descending Cleveland Center
12:41PM 44.4589 -84.8906 North 286 329 7,900 -180 Descending Cleveland Center
12:42PM 44.5503 -84.8947 358° North 287 330 7,900 -480 Level Cleveland Center
12:44PM 44.6258 -84.8894 North 269 310 6,900 -1,260 Descending Minneapolis Center
12:45PM 44.6842 -84.8897 360° North 242 278 5,100 -1,500 Descending Minneapolis Center
12:46PM 44.7106 -84.9447 304° West 228 262 3,900 -600 Descending Minneapolis Center
12:47PM 44.7172 -85.0417 276° West 218 251 3,900  Level Minneapolis Center
12:48PM 44.7197 -85.1236 272° West 213 245 3,900 -120 Level Minneapolis Center
12:49PM 44.7231 -85.2061 273° West 212 244 3,700 -300 Descending Minneapolis Center
12:50PM 44.7269 -85.2867 274° West 209 241 3,400 -180 Descending Minneapolis Center
12:51PM 44.7308 -85.3664 274° West 207 238 3,400 -480 Level Minneapolis Center
12:52PM 44.7347 -85.4461 274° West 206 237 2,500 -900 Descending Minneapolis Center
12:53PM 44.7369 -85.4978 273° West 164 189 1,600 -780 Descending Minneapolis Center
12:54PM 44.7397 -85.5556 274° West 148 170 1,000 -600 Descending Minneapolis Center